createdAt,value
2018-05-13T09:13:32.094Z,7.12
2018-05-13T09:15:58.735Z,6.50
2018-05-13T09:18:25.410Z,6.78
2018-05-13T09:20:51.377Z,5.45
2018-05-13T09:23:17.239Z,6.60
2018-05-13T09:25:43.119Z,5.77
2018-05-13T09:28:09.046Z,6.63
2018-05-13T09:30:34.915Z,6.77
2018-05-13T09:33:00.857Z,6.60
2018-05-13T09:35:27.478Z,6.60
2018-05-13T09:37:53.382Z,7.90
2018-05-13T09:40:19.294Z,7.07
2018-05-13T09:42:45.194Z,7.10
2018-05-13T09:45:11.079Z,7.00
2018-05-13T09:47:36.966Z,8.33
2018-05-13T09:50:02.899Z,8.00
2018-05-13T09:52:28.782Z,7.77
2018-05-13T09:54:55.438Z,7.10
2018-05-13T09:57:22.069Z,8.07
2018-05-13T09:59:48.726Z,8.70
2018-05-13T10:02:14.657Z,7.80
2018-05-13T10:04:40.584Z,9.03
2018-05-13T10:07:06.492Z,9.50
2018-05-13T10:09:32.418Z,9.37
2018-05-13T10:11:58.340Z,9.90
2018-05-13T10:14:24.246Z,10.10
2018-05-13T10:16:50.184Z,10.80
2018-05-13T10:19:16.094Z,9.60
2018-05-13T10:21:42.028Z,9.40
2018-05-13T10:24:07.959Z,11.87
2018-05-13T10:26:33.886Z,11.37
2018-05-13T10:28:59.777Z,12.37
2018-05-13T10:31:25.699Z,12.17
2018-05-13T10:33:51.630Z,13.03
2018-05-13T10:36:17.515Z,12.50
2018-05-13T10:38:44.170Z,12.23
2018-05-13T10:41:10.069Z,12.18
2018-05-13T10:43:36.740Z,11.60
2018-05-13T10:46:02.675Z,13.75
2018-05-13T10:48:28.559Z,13.30
2018-05-13T10:50:54.489Z,13.83
2018-05-13T10:53:20.387Z,12.90
2018-05-13T10:55:47.076Z,13.10
2018-05-13T10:58:13.305Z,12.40
2018-05-13T11:00:39.233Z,12.40
2018-05-13T11:03:05.182Z,13.17
2018-05-13T11:05:31.079Z,14.13
2018-05-13T11:07:57.029Z,14.83
2018-05-13T11:10:23.012Z,14.80
2018-05-13T11:12:48.797Z,14.57
2018-05-13T11:15:15.486Z,15.40
2018-05-13T11:17:41.418Z,14.50
2018-05-13T11:20:07.387Z,14.97
2018-05-13T11:22:33.236Z,15.67
2018-05-13T11:24:59.125Z,16.57
2018-05-13T11:27:25.760Z,16.27
2018-05-13T11:29:52.423Z,15.57
2018-05-13T11:32:19.086Z,16.23
2018-05-13T11:34:45.024Z,17.55
2018-05-13T11:37:10.926Z,17.40
2018-05-13T11:39:36.837Z,18.07
2018-05-13T11:42:02.767Z,17.00
2018-05-13T11:44:28.659Z,22.87
2018-05-13T11:46:54.599Z,29.53
2018-05-13T11:49:20.483Z,23.17
2018-05-13T11:51:47.152Z,16.53
2018-05-13T11:54:13.807Z,41.13
2018-05-13T11:56:39.739Z,29.60
2018-05-13T11:59:05.665Z,49.37
2018-05-13T12:01:31.542Z,28.60
2018-05-13T12:03:57.489Z,16.70
2018-05-13T12:06:23.401Z,29.93
2018-05-13T12:08:49.339Z,21.47
2018-05-13T12:11:15.250Z,47.33
2018-05-13T12:13:41.149Z,16.20
2018-05-13T12:16:07.070Z,11.90
2018-05-13T12:18:33.002Z,12.30
2018-05-13T12:20:58.986Z,13.17
2018-05-13T12:23:24.830Z,13.07
2018-05-13T12:25:50.742Z,13.00
2018-05-13T12:28:16.627Z,14.60
2018-05-13T12:30:42.567Z,13.00
2018-05-13T12:33:09.186Z,10.97
2018-05-13T12:35:35.101Z,11.80
2018-05-13T12:38:01.042Z,11.40
2018-05-13T12:40:26.918Z,11.40
2018-05-13T12:42:52.846Z,10.90
2018-05-13T12:45:18.734Z,11.83
2018-05-13T12:47:44.662Z,11.30
2018-05-13T12:50:10.625Z,12.37
2018-05-13T12:52:37.216Z,11.70
2018-05-13T12:55:03.132Z,10.80
2018-05-13T12:57:29.006Z,11.27
2018-05-13T12:59:54.941Z,11.87
2018-05-13T13:02:21.612Z,10.33
2018-05-13T13:04:48.262Z,11.57
2018-05-13T13:07:14.171Z,12.02
2018-05-13T13:09:40.083Z,12.33
2018-05-13T13:12:05.999Z,11.53
2018-05-13T13:14:31.947Z,11.13
2018-05-13T13:16:57.838Z,12.07
2018-05-13T13:19:23.765Z,11.23
2018-05-13T13:21:49.643Z,11.83
2018-05-13T13:24:15.601Z,12.33
2018-05-13T13:26:41.483Z,13.50
2018-05-13T13:29:07.427Z,14.37
2018-05-13T13:31:34.060Z,16.13
2018-05-13T13:33:59.954Z,20.27
2018-05-13T13:36:25.874Z,10.80
2018-05-13T13:38:51.779Z,13.53
2018-05-13T13:41:18.543Z,11.93
2018-05-13T13:43:44.445Z,12.65
2018-05-13T13:46:10.364Z,14.30
2018-05-13T13:48:36.246Z,10.97
2018-05-13T13:51:02.153Z,11.80
2018-05-13T13:53:28.845Z,11.10
2018-05-13T13:55:55.427Z,10.82
2018-05-13T13:58:22.079Z,11.45
2018-05-13T14:00:48.738Z,18.25
2018-05-13T14:03:14.633Z,14.55
2018-05-13T14:05:41.313Z,14.90
2018-05-13T14:08:07.205Z,17.62
2018-05-13T14:10:33.093Z,13.97
2018-05-13T14:12:59.031Z,11.90
2018-05-13T14:15:25.704Z,15.67
2018-05-13T14:17:51.631Z,11.70
2018-05-13T14:20:17.572Z,11.57
2018-05-13T14:22:43.442Z,11.83
2018-05-13T14:25:09.339Z,14.03
2018-05-13T14:27:35.283Z,12.90
2018-05-13T14:30:01.177Z,11.73
2018-05-13T14:32:27.098Z,10.60
2018-05-13T14:34:52.995Z,11.30
2018-05-13T14:37:18.886Z,11.40
2018-05-13T14:39:44.891Z,10.70
2018-05-13T14:42:10.706Z,12.13
2018-05-13T14:44:37.361Z,10.73
2018-05-13T14:47:04.016Z,10.85
2018-05-13T14:49:29.979Z,9.85
2018-05-13T14:51:55.876Z,11.80
2018-05-13T14:54:21.783Z,11.03
2018-05-13T14:56:47.695Z,11.17
2018-05-13T14:59:14.355Z,11.33
2018-05-13T15:01:40.239Z,13.48
2018-05-13T15:04:06.209Z,11.67
2018-05-13T15:06:32.101Z,14.67
2018-05-13T15:08:58.015Z,12.30
2018-05-13T15:11:24.656Z,12.00
2018-05-13T15:13:50.586Z,11.07
2018-05-13T15:16:16.507Z,10.90
2018-05-13T15:18:42.390Z,12.50
2018-05-13T15:21:09.046Z,10.50
2018-05-13T15:23:34.926Z,11.80
2018-05-13T15:26:00.853Z,11.50
2018-05-13T15:28:27.509Z,11.50
2018-05-13T15:30:53.440Z,12.25
2018-05-13T15:33:19.363Z,10.20
2018-05-13T15:35:45.259Z,10.23
2018-05-13T15:38:11.934Z,11.17
2018-05-13T15:40:37.822Z,10.38
2018-05-13T15:43:03.850Z,11.17
2018-05-13T15:45:30.367Z,10.43
2018-05-13T15:47:57.067Z,12.77
2018-05-13T15:50:23.026Z,9.80
2018-05-13T15:52:49.702Z,9.27
2018-05-13T15:55:15.694Z,9.40
2018-05-13T15:57:42.226Z,9.63
2018-05-13T16:00:08.142Z,9.80
2018-05-13T16:02:34.046Z,9.90
2018-05-13T16:04:59.955Z,10.67
2018-05-13T16:07:25.848Z,9.30
2018-05-13T16:09:51.803Z,9.47
2018-05-13T16:12:17.806Z,10.03
2018-05-13T16:14:43.622Z,10.00
2018-05-13T16:17:09.527Z,9.33
2018-05-13T16:19:35.459Z,10.17
2018-05-13T16:22:01.356Z,9.93
2018-05-13T16:24:28.051Z,8.80
2018-05-13T16:26:53.956Z,9.00
2018-05-13T16:29:19.863Z,9.27
2018-05-13T16:31:45.771Z,9.20
2018-05-13T16:34:11.678Z,8.53
2018-05-13T16:36:37.599Z,9.07
2018-05-13T16:39:03.485Z,8.10
2018-05-13T16:41:29.418Z,9.20
2018-05-13T16:43:55.292Z,9.10
2018-05-13T16:46:21.283Z,8.63
2018-05-13T16:48:47.150Z,9.13
2018-05-13T16:51:13.082Z,10.30
2018-05-13T16:53:38.991Z,8.90
2018-05-13T16:56:04.937Z,8.33
2018-05-13T16:58:30.867Z,8.23
2018-05-13T17:00:56.756Z,9.17
2018-05-13T17:03:22.682Z,9.53
2018-05-13T17:05:48.648Z,9.80
2018-05-13T17:08:14.542Z,9.20
2018-05-13T17:10:40.471Z,9.87
2018-05-13T17:13:06.388Z,9.47
2018-05-13T17:15:32.313Z,9.27
2018-05-13T17:17:58.227Z,10.63
2018-05-13T17:20:24.128Z,10.70
2018-05-13T17:22:50.041Z,11.23
2018-05-13T17:25:15.957Z,8.90
2018-05-13T17:27:41.899Z,9.57
2018-05-13T17:30:07.822Z,9.77
2018-05-13T17:32:33.734Z,10.53
2018-05-13T17:34:59.635Z,9.87
2018-05-13T17:37:25.569Z,8.70
2018-05-13T17:39:52.233Z,9.03
2018-05-13T17:42:18.113Z,9.02
2018-05-13T17:44:44.047Z,8.37
2018-05-13T17:47:09.986Z,8.50
2018-05-13T17:49:35.908Z,9.13
2018-05-13T17:52:01.827Z,8.77
2018-05-13T17:54:27.738Z,9.03
2018-05-13T17:56:53.712Z,7.87
2018-05-13T17:59:19.594Z,9.17
2018-05-13T18:01:45.543Z,10.83
2018-05-13T18:04:12.210Z,9.00
2018-05-13T18:06:38.161Z,8.80
2018-05-13T18:09:04.141Z,7.93
2018-05-13T18:11:30.145Z,9.15
2018-05-13T18:13:55.982Z,8.70
2018-05-13T18:16:21.923Z,9.13
2018-05-13T18:18:47.805Z,9.33
2018-05-13T18:21:14.474Z,8.77
2018-05-13T18:23:40.406Z,9.63
2018-05-13T18:26:06.294Z,9.10
2018-05-13T18:28:32.983Z,9.07
2018-05-13T18:30:58.956Z,9.27
2018-05-13T18:33:24.822Z,9.57
2018-05-13T18:35:50.732Z,9.43
2018-05-13T18:38:16.664Z,9.30
2018-05-13T18:40:42.587Z,9.07
2018-05-13T18:43:08.538Z,9.43
2018-05-13T18:45:34.453Z,8.27
2018-05-13T18:48:00.358Z,10.40
2018-05-13T18:50:26.359Z,8.70
2018-05-13T18:52:52.219Z,10.50
2018-05-13T18:55:18.180Z,9.93
2018-05-13T18:57:44.119Z,9.20
2018-05-13T19:00:10.039Z,10.10
2018-05-13T19:02:35.932Z,8.73
2018-05-13T19:05:02.607Z,10.30
2018-05-13T19:07:28.499Z,8.98
2018-05-13T19:09:54.459Z,8.80
2018-05-13T19:12:20.467Z,10.13
2018-05-13T19:14:46.354Z,9.60
2018-05-13T19:17:12.250Z,9.70
2018-05-13T19:19:38.219Z,10.57
2018-05-13T19:22:04.153Z,8.40
2018-05-13T19:24:30.059Z,8.70
2018-05-13T19:26:55.967Z,10.37
2018-05-13T19:29:21.903Z,8.87
2018-05-13T19:31:47.818Z,11.37
2018-05-13T19:34:13.743Z,10.07
2018-05-13T19:36:39.651Z,8.73
2018-05-13T19:39:05.559Z,12.17
2018-05-13T19:41:32.217Z,9.93
2018-05-13T19:43:58.127Z,10.02
2018-05-13T19:46:24.061Z,9.33
2018-05-13T19:48:49.975Z,10.47
2018-05-13T19:51:15.919Z,8.63
2018-05-13T19:53:41.850Z,10.30
2018-05-13T19:56:07.786Z,13.13
2018-05-13T19:58:33.761Z,9.93
2018-05-13T20:01:00.537Z,16.10
2018-05-13T20:03:26.550Z,10.55
2018-05-13T20:05:52.834Z,10.60
2018-05-13T20:08:19.644Z,13.57
2018-05-13T20:10:45.872Z,10.23
2018-05-13T20:13:12.054Z,9.60
2018-05-13T20:15:39.079Z,11.10
2018-05-13T20:18:05.210Z,9.93
2018-05-13T20:20:32.091Z,15.80
2018-05-13T20:22:58.363Z,11.77
2018-05-13T20:25:25.272Z,8.38
2018-05-13T20:27:52.103Z,8.60
2018-05-13T20:30:18.301Z,10.07
2018-05-13T20:32:46.530Z,9.05
2018-05-13T20:35:13.328Z,9.77
2018-05-13T20:37:41.610Z,9.80
2018-05-13T20:40:08.411Z,9.75
2018-05-13T20:42:35.435Z,10.20
2018-05-13T20:45:02.504Z,10.15
2018-05-13T20:47:28.737Z,9.32
2018-05-13T20:49:55.567Z,10.40
2018-05-13T20:52:22.675Z,9.27
2018-05-13T20:54:49.513Z,11.38
2018-05-13T20:57:15.542Z,10.88
2018-05-13T20:59:43.073Z,10.95
2018-05-13T21:02:09.368Z,11.45
2018-05-13T21:04:35.322Z,12.55
2018-05-13T21:07:01.345Z,11.30
2018-05-13T21:09:27.333Z,9.32
2018-05-13T21:11:53.272Z,10.80
2018-05-13T21:14:19.649Z,12.20
2018-05-13T21:16:45.812Z,9.48
2018-05-13T21:19:12.119Z,11.05
2018-05-13T21:21:38.352Z,9.75
2018-05-13T21:24:04.265Z,11.40
2018-05-13T21:26:30.256Z,10.43
2018-05-13T21:28:56.614Z,10.13
2018-05-13T21:31:22.930Z,11.55
2018-05-13T21:33:48.857Z,11.70
2018-05-13T21:36:14.791Z,10.57
2018-05-13T21:38:40.796Z,11.87
2018-05-13T21:41:06.989Z,11.95
2018-05-13T21:43:34.627Z,12.23
2018-05-13T21:46:00.661Z,11.45
2018-05-13T21:48:26.631Z,11.40
2018-05-13T21:50:52.631Z,12.30
2018-05-13T21:53:19.306Z,11.20
2018-05-13T21:55:45.436Z,12.65
2018-05-13T21:58:11.393Z,11.23
2018-05-13T22:00:37.405Z,12.63
2018-05-13T22:03:03.452Z,11.07
2018-05-13T22:05:29.743Z,12.68
2018-05-13T22:07:55.999Z,12.13
2018-05-13T22:10:21.955Z,12.75
2018-05-13T22:12:47.937Z,11.10
2018-05-13T22:15:13.982Z,11.20
2018-05-13T22:17:41.294Z,10.50
2018-05-13T22:20:08.803Z,11.18
2018-05-13T22:22:35.745Z,11.40
2018-05-13T22:25:02.063Z,10.88
2018-05-13T22:27:28.955Z,11.35
2018-05-13T22:29:55.728Z,11.73
2018-05-13T22:32:21.789Z,11.88
2018-05-13T22:34:47.811Z,11.18
2018-05-13T22:37:13.955Z,12.32
2018-05-13T22:39:40.725Z,12.77
2018-05-13T22:42:07.255Z,12.02
2018-05-13T22:44:33.309Z,14.93
2018-05-13T22:47:00.043Z,12.27
2018-05-13T22:49:26.332Z,13.27
2018-05-13T22:51:52.536Z,12.50
2018-05-13T22:54:19.411Z,12.80
2018-05-13T22:56:46.165Z,13.20
2018-05-13T22:59:12.898Z,12.32
2018-05-13T23:01:38.965Z,12.32
2018-05-13T23:04:05.802Z,13.43
2018-05-13T23:06:32.742Z,14.25
2018-05-13T23:08:59.624Z,13.70
2018-05-13T23:11:25.896Z,12.88
2018-05-13T23:13:52.712Z,14.13
2018-05-13T23:16:18.659Z,13.75
2018-05-13T23:18:44.803Z,13.32
2018-05-13T23:21:11.106Z,13.90
2018-05-13T23:23:37.107Z,11.98
2018-05-13T23:26:04.868Z,13.83
2018-05-13T23:28:31.526Z,13.62
2018-05-13T23:30:57.826Z,13.80
2018-05-13T23:33:25.084Z,15.48
2018-05-13T23:35:51.321Z,16.15
2018-05-13T23:38:17.297Z,14.87
2018-05-13T23:40:43.351Z,15.27
2018-05-13T23:43:10.875Z,16.08
2018-05-13T23:45:38.275Z,15.27
2018-05-13T23:48:04.557Z,16.70
2018-05-13T23:50:31.083Z,15.90
2018-05-13T23:52:58.803Z,15.77
2018-05-13T23:55:26.007Z,15.63
2018-05-13T23:57:52.999Z,16.02
